Skip Navigation Links Skip Navigation Links

Current Weather

Central Park, New York

For information only: do not use for flight planning or navigation.
Latest weather
Observation time Sunday, December 17, 2017 5:51 PM EST
Local time Sunday, December 17, 2017 6:08 PM EST
Flight conditions Visual Meteorological Conditions
Winds
Wind direction variable
Wind speed 3 mph
Visibility 10 mi.
Sky condition
Ceiling unlimited
Sky clear
Temperature 35°F
Dewpoint 25°F
Altimeter 30.27 in.Hg
Derived measurements
Relative humidity 66%
Wind chill 32°F
Density altitude -1791 ft.
Sea-level pressure 30.24 in.Hg
Remarks
Fully automated report.
System requires maintenance.
Automated weather observing station with precipitation discriminator.
METAR KNYC 172251Z AUTO VRB03KT 10SM CLR 02/M04 A3027 RMK AO2 SLP242 T00171039 $

Settings

Location code

InnerDrive.Weather 4.0.6144.1 Release CLR 4.0.30319.36366
Copyright ©2015 Inner Drive Technology. All rights reserved. Portions Copyright ©1986-2015 David Braverman.

Find weather

Site navigation


Skip Navigation Links

Place info

Page info

PayPal - The safer, easier way to pay online!

Return home.

Copyright ©2017 Inner Drive Technology. Purveyors of fine, hand-crafted computer software. Page printed 2017-12-17T23:08:20 UTC.